Flight Track Log - Related Links

Times and Time Zones

All times are in EDT time to prevent confusion due to time zone crossing. See the N143DE flight status page for this flight to view local times or setup timezone preferences in your user account.

Time Position Orientation Groundspeed Altitude Reporting Facility
EDT Latitude Longitude Course Direction KTS MPH feet Rate Location/Type
Sun 02:27:59 PM 34.0167 -84.5333 121° Southeast 162 186 3,800  Level Atlanta TRACON
Sun 02:28:59 PM 34.0000 -84.4667 107° East 159 183 5,900 1,600 Climbing Atlanta TRACON
Sun 02:29:59 PM 34.0000 -84.4167 90° East 184 212 7,000 950 Climbing Atlanta TRACON
Sun 02:30:59 PM 33.9833 -84.3500 107° East 216 249 7,800 684 Climbing Atlanta TRACON
Sun 02:31:53 PM 33.9667 -84.2833 107° East 224 258 8,300 579 Climbing Atlanta TRACON
Sun 02:32:53 PM 33.9500 -84.2000 104° East 228 262 8,900 381 Climbing Atlanta TRACON
Sun 02:33:00 PM 33.9019 -84.1772 121° Southeast  Level Estimated
Sun 02:33:59 PM 33.9500 -84.1167 90° East 234 269 9,100  Level Atlanta TRACON
Sun 02:34:53 PM 33.9333 -84.0500 107° East 241 277 9,100  Level Atlanta TRACON
Sun 02:36:33 PM 33.9214 -83.9286 97° East 247 284 9,100 225 Level Atlanta Center
Sun 02:37:33 PM 33.9153 -83.8436 95° East 240 276 9,700 600 Climbing Atlanta Center
Sun 02:38:33 PM 33.9044 -83.7661 100° East 234 269 10,300 600 Climbing Atlanta Center
Sun 02:39:33 PM 33.8919 -83.6933 102° East 229 264 10,900 900 Climbing Atlanta Center
Sun 02:40:33 PM 33.8811 -83.6208 100° East 224 258 12,100 1,300 Climbing Atlanta Center
Sun 02:41:33 PM 33.8767 -83.5558 95° East 205 236 13,500 1,250 Climbing Atlanta Center
Sun 02:42:33 PM 33.8722 -83.4933 95° East 195 224 14,600 1,000 Climbing Atlanta Center
Sun 02:43:33 PM 33.8700 -83.4258 92° East 200 230 15,500 1,000 Climbing Atlanta Center
Sun 02:44:33 PM 33.8611 -83.3558 99° East 200 230 16,600 1,050 Climbing Atlanta Center
Sun 02:45:33 PM 33.8483 -83.2908 103° East 200 230 17,600 750 Climbing Atlanta Center
Sun 02:46:33 PM 33.8417 -83.2233 97° East 200 230 18,100 750 Climbing Atlanta Center
Sun 02:47:33 PM 33.8328 -83.1636 100° East 200 230 19,100 1,050 Climbing Atlanta Center
Sun 02:48:33 PM 33.8219 -83.0986 101° East 200 230 20,200 1,000 Climbing Atlanta Center
Sun 02:49:33 PM 33.8172 -83.0411 96° East 184 212 21,100 800 Climbing Atlanta Center
Sun 02:50:33 PM 33.8083 -82.9789 100° East 184 212 21,800 600 Climbing Atlanta Center
Sun 02:51:33 PM 33.7953 -82.9139 104° East 189 217 22,300 600 Climbing Atlanta Center
Sun 02:52:33 PM 33.7864 -82.8492 99° East 194 223 23,000 397 Climbing Atlanta Center
Sun 02:53:34 PM 33.7753 -82.7717 100° East 199 229 23,100 100 Climbing Atlanta Center
Sun 02:54:33 PM 33.7681 -82.6969 97° East 215 247 23,200  Climbing Atlanta Center
Sun 02:55:33 PM 33.7589 -82.6194 98° East 224 258 23,100 -50 Descending Atlanta Center
Sun 02:56:33 PM 33.7497 -82.5397 98° East 234 269 23,100  Level Atlanta Center
Sun 02:57:33 PM 33.7403 -82.4600 98° East 234 269 23,100  Level Atlanta Center
Sun 02:58:33 PM 33.7350 -82.3803 95° East 234 269 23,100 -50 Level Atlanta Center
Sun 02:59:33 PM 33.7194 -82.3006 103° East 240 276 23,000 -50 Descending Atlanta Center
Sun 03:00:33 PM 33.7100 -82.2283 99° East 240 276 23,000  Level Atlanta Center
Sun 03:01:33 PM 33.6961 -82.1511 102° East 240 276 23,000  Level Atlanta Center
Sun 03:03:42 PM 33.6517 -81.9894 108° East 239 275 23,000 32 Level Jacksonville Center
Sun 03:04:42 PM 33.6303 -81.9147 109° East 239 275 23,100  Climbing Jacksonville Center
Sun 03:05:42 PM 33.6044 -81.8428 113° Southeast 239 275 23,000 -50 Descending Jacksonville Center
Sun 03:06:42 PM 33.5831 -81.7631 108° East 244 281 23,000  Level Jacksonville Center
Sun 03:07:42 PM 33.5594 -81.6911 111° Southeast 244 281 23,000  Level Jacksonville Center
Sun 03:08:42 PM 33.5317 -81.6194 115° Southeast 239 275 23,000  Level Jacksonville Center
Sun 03:09:42 PM 33.5058 -81.5475 113° Southeast 234 269 23,000 -550 Level Jacksonville Center
Sun 03:10:42 PM 33.4861 -81.4706 107° East 229 264 21,900 -1,150 Descending Jacksonville Center
Sun 03:11:42 PM 33.4622 -81.3839 108° East 247 284 20,700 -1,300 Descending Jacksonville Center
Sun 03:12:42 PM 33.4319 -81.2972 113° Southeast 265 305 19,300 -1,450 Descending Jacksonville Center
Sun 03:13:42 PM 33.4036 -81.2106 111° Southeast 277 319 17,800 -1,412 Descending Jacksonville Center
Sun 03:14:41 PM 33.3753 -81.1217 111° Southeast 277 319 16,500 -1,300 Descending Jacksonville Center
Sun 03:15:42 PM 33.3469 -81.0375 112° Southeast 277 319 15,200 -1,250 Descending Jacksonville Center
Sun 03:16:41 PM 33.3228 -80.9561 110° East 271 312 14,000 -1,250 Descending Jacksonville Center
Sun 03:17:42 PM 33.2964 -80.8747 111° Southeast 271 312 12,700 -1,091 Descending Jacksonville Center
Sun 03:18:42 PM 33.2700 -80.7958 112° Southeast 264 304 11,800 -800 Descending Jacksonville Center
Sun 03:19:42 PM 33.2458 -80.7194 111° Southeast 259 298 11,100 -400 Descending Jacksonville Center
Sun 03:20:42 PM 33.2239 -80.6503 111° Southeast 240 276 11,000 -400 Descending Jacksonville Center
Sun 03:21:42 PM 33.1831 -80.5894 129° Southeast 227 261 10,300 -1,150 Descending Jacksonville Center
Sun 03:22:42 PM 33.1217 -80.5489 151° Southeast 227 261 8,700 -1,412 Descending Jacksonville Center
Sun 03:23:41 PM 33.0603 -80.5033 148° Southeast 249 287 7,500 -1,500 Descending Jacksonville Center
Sun 03:24:42 PM 33.0031 -80.4478 141° Southeast 254 292 5,700 -1,488 Descending Jacksonville Center
Sun 03:25:42 PM 32.9517 -80.3922 138° Southeast 254 292 4,500 -950 Descending Jacksonville Center
Sun 03:26:42 PM 32.8986 -80.3442 143° Southeast 249 287 3,800 -800 Descending Jacksonville Center
Sun 03:27:42 PM 32.8558 -80.2911 134° Southeast 239 275 2,900 -900 Descending Jacksonville Center
Sun 03:29:00 PM 32.8128 -80.2108 128° Southeast  Level Estimated
Sun 03:36:00 PM 32.7000 -80.0000 132° Southeast  Level FlightAware Approximate

Login

Don't have an account? Register now (free) for customized features, flight alerts, and more!